Time;durP1;ratioP1;P1;durP2;ratioP2;P2;SDS_P1;SDS_P2;PMS_P1;PMS_P2;Temp;Humidity;BMP_temperature;BMP_pressure;BME280_temperature;BME280_humidity;BME280_pressure;Samples;Min_cycle;Max_cycle;Signal;HPM_P1;HPM_P2
2022/03/29 00:10:17;;;;;;;14.57;8.43;;;9.20;55.80;;;;;;848501;22;20326;-96
2022/03/29 00:12:53;;;;;;;16.13;8.68;;;9.20;56.20;;;;;;4979660;28;20046;-94
2022/03/29 00:15:50;;;;;;;13.68;8.15;;;9.10;55.80;;;;;;4982146;28;20057;-94
2022/03/29 00:18:50;;;;;;;11.55;7.55;;;9.10;56.00;;;;;;4983825;28;20054;-94
2022/03/29 00:21:25;;;;;;;16.58;8.52;;;9.10;56.10;;;;;;4971026;28;20031;-94
2022/03/29 00:24:09;;;;;;;14.30;8.23;;;9.00;56.00;;;;;;4979623;28;20034;-94
2022/03/29 00:26:59;;;;;;;19.02;8.30;;;8.90;56.70;;;;;;4980049;28;20035;-94
2022/03/29 00:29:31;;;;;;;16.00;8.27;;;8.90;56.10;;;;;;4979240;28;20039;-93
2022/03/29 00:32:01;;;;;;;15.52;8.40;;;8.90;56.40;;;;;;4979850;28;20038;-93
2022/03/29 00:34:29;;;;;;;14.32;8.07;;;8.90;56.80;;;;;;4982427;28;20030;-94
2022/03/29 00:37:08;;;;;;;15.70;8.77;;;8.90;56.70;;;;;;4990330;28;20053;-93
2022/03/29 00:39:59;;;;;;;13.80;8.75;;;8.90;56.80;;;;;;4995006;28;20030;-93
2022/03/29 00:42:31;;;;;;;14.38;8.25;;;8.80;57.30;;;;;;4978295;28;20035;-94
2022/03/29 00:45:11;;;;;;;14.23;8.38;;;8.80;56.80;;;;;;4993538;28;20065;-94
2022/03/29 00:47:53;;;;;;;15.00;8.60;;;8.70;56.90;;;;;;4985535;28;20023;-93
2022/03/29 00:50:25;;;;;;;17.33;7.88;;;8.70;57.10;;;;;;4980599;28;20052;-93
2022/03/29 00:52:52;;;;;;;13.98;8.00;;;8.70;56.90;;;;;;4979791;28;20039;-93
2022/03/29 00:55:21;;;;;;;13.57;7.88;;;8.60;56.90;;;;;;4985495;28;20098;-92
2022/03/29 00:57:49;;;;;;;15.40;8.85;;;8.60;57.10;;;;;;4977932;28;20069;-93
2022/03/29 01:00:26;;;;;;;15.60;8.32;;;8.60;57.20;;;;;;4978504;28;20094;-95
2022/03/29 01:03:10;;;;;;;15.57;8.57;;;8.60;57.30;;;;;;4984858;28;20093;-94
2022/03/29 01:06:02;;;;;;;15.65;8.20;;;8.60;57.50;;;;;;4991268;28;20034;-93
2022/03/29 01:08:36;;;;;;;16.50;8.90;;;8.60;57.60;;;;;;4982195;28;20030;-93
2022/03/29 01:11:12;;;;;;;13.45;8.02;;;8.60;57.30;;;;;;4981948;28;20061;-93
2022/03/29 01:13:55;;;;;;;15.57;8.88;;;8.60;57.60;;;;;;4984694;28;20057;-93
2022/03/29 01:19:27;;;;;;;16.45;9.00;;;8.50;57.60;;;;;;4994742;28;20061;-93
2022/03/29 01:22:14;;;;;;;22.58;8.30;;;8.50;57.60;;;;;;4981033;28;20034;-94
2022/03/29 01:25:10;;;;;;;16.67;8.50;;;8.50;57.90;;;;;;4983535;28;20041;-93
2022/03/29 01:27:39;;;;;;;15.52;8.00;;;8.50;58.00;;;;;;4979765;28;20029;-94
2022/03/29 01:30:11;;;;;;;15.27;8.48;;;8.40;57.90;;;;;;4980007;28;20045;-93
2022/03/29 01:32:57;;;;;;;16.17;8.35;;;8.40;57.90;;;;;;4984558;28;20053;-94
2022/03/29 01:35:46;;;;;;;15.73;8.60;;;8.40;58.00;;;;;;4977463;28;20035;-92
2022/03/29 01:38:28;;;;;;;15.38;9.25;;;8.40;57.90;;;;;;4997544;28;20105;-95
2022/03/29 02:50:41;;;;;;;11.85;7.85;;;7.80;59.40;;;;;;4953139;28;20519;-88
2022/03/29 02:53:08;;;;;;;14.00;7.82;;;7.70;59.50;;;;;;4943043;29;20062;-89
2022/03/29 02:55:34;;;;;;;14.23;7.90;;;7.70;59.60;;;;;;4940749;29;20027;-89
2022/03/29 02:58:00;;;;;;;12.30;7.65;;;7.80;59.70;;;;;;4942405;29;20126;-88
2022/03/29 03:00:27;;;;;;;11.15;7.57;;;7.80;59.80;;;;;;4939312;28;20027;-88
2022/03/29 03:02:54;;;;;;;17.20;7.32;;;7.80;59.90;;;;;;4954326;28;20061;-88
2022/03/29 03:05:20;;;;;;;18.75;8.13;;;7.80;59.80;;;;;;4945674;29;20031;-88
2022/03/29 03:07:47;;;;;;;13.98;8.05;;;7.80;59.90;;;;;;4942773;29;20503;-88
2022/03/29 03:10:14;;;;;;;15.48;8.38;;;7.80;60.10;;;;;;4949557;28;20020;-88
2022/03/29 03:12:42;;;;;;;15.32;8.20;;;7.80;60.20;;;;;;4938832;29;20034;-88
2022/03/29 03:15:09;;;;;;;13.85;7.65;;;7.80;60.30;;;;;;4941875;29;20038;-88
2022/03/29 03:17:35;;;;;;;14.85;7.82;;;7.80;60.30;;;;;;4962446;28;20027;-89
2022/03/29 03:20:01;;;;;;;15.45;8.52;;;7.80;60.40;;;;;;4933320;28;20031;-88
2022/03/29 03:22:27;;;;;;;13.73;7.93;;;7.80;60.40;;;;;;4951793;28;20041;-88
2022/03/29 03:24:52;;;;;;;14.15;8.07;;;7.80;60.30;;;;;;4956892;28;20058;-89
2022/03/29 03:27:19;;;;;;;16.52;8.10;;;7.80;60.30;;;;;;4952315;28;20086;-88
2022/03/29 03:29:45;;;;;;;14.75;8.05;;;7.70;60.10;;;;;;4948035;28;20392;-89
2022/03/29 03:32:11;;;;;;;17.00;8.50;;;7.70;60.40;;;;;;4943595;28;20043;-89
2022/03/29 03:34:37;;;;;;;10.73;7.28;;;7.60;60.40;;;;;;4942708;28;20035;-89
2022/03/29 03:37:04;;;;;;;15.98;8.35;;;7.60;60.30;;;;;;4944315;28;20047;-89
2022/03/29 03:39:34;;;;;;;15.63;7.68;;;7.50;60.20;;;;;;4936923;29;20118;-89
2022/03/29 03:42:09;;;;;;;13.90;8.18;;;7.40;60.30;;;;;;4937096;28;20023;-88
2022/03/29 03:44:36;;;;;;;13.55;7.88;;;7.30;60.30;;;;;;4946211;29;20118;-88
2022/03/29 03:47:03;;;;;;;13.25;7.80;;;7.20;60.30;;;;;;4942687;28;20042;-89
2022/03/29 03:49:28;;;;;;;16.08;8.55;;;7.20;60.50;;;;;;4933762;28;20046;-88
2022/03/29 03:51:54;;;;;;;12.05;7.55;;;7.20;60.50;;;;;;4934794;28;20031;-88
2022/03/29 03:54:21;;;;;;;12.05;7.78;;;7.10;60.60;;;;;;4960475;28;20034;-88
2022/03/29 03:56:46;;;;;;;14.40;8.02;;;7.10;60.70;;;;;;4936298;29;20034;-88
2022/03/29 03:59:12;;;;;;;14.05;8.95;;;7.10;60.90;;;;;;4939451;29;20035;-89
2022/03/29 04:01:38;;;;;;;13.80;7.82;;;7.00;60.80;;;;;;4941740;29;20034;-88
2022/03/29 04:04:04;;;;;;;12.70;8.38;;;7.00;60.80;;;;;;4941929;29;20035;-89
2022/03/29 04:06:29;;;;;;;16.77;8.50;;;7.00;60.90;;;;;;4942986;29;20038;-87
2022/03/29 04:08:55;;;;;;;14.52;7.88;;;7.00;61.20;;;;;;4940095;29;20031;-89
2022/03/29 04:11:20;;;;;;;16.05;7.93;;;7.00;61.30;;;;;;4958103;28;20061;-89
2022/03/29 04:13:46;;;;;;;14.10;8.00;;;7.00;61.40;;;;;;4946915;29;20011;-87
2022/03/29 04:16:13;;;;;;;12.93;8.02;;;7.00;61.50;;;;;;4974747;28;22697;-88
2022/03/29 04:18:39;;;;;;;16.63;8.73;;;7.00;61.60;;;;;;4967588;28;20093;-88
2022/03/29 04:21:06;;;;;;;12.57;8.30;;;7.00;61.60;;;;;;4949771;29;20023;-88
2022/03/29 04:23:32;;;;;;;13.98;8.07;;;7.00;61.60;;;;;;4939431;29;20460;-87
2022/03/29 04:25:57;;;;;;;12.98;7.72;;;7.00;61.60;;;;;;4944412;28;20058;-88
2022/03/29 04:28:24;;;;;;;14.20;7.85;;;7.00;61.50;;;;;;4935741;29;20019;-89
2022/03/29 04:30:50;;;;;;;14.90;8.32;;;6.90;61.40;;;;;;4941738;28;20023;-89
2022/03/29 04:33:17;;;;;;;15.07;7.97;;;6.90;61.40;;;;;;4952632;28;20030;-89
2022/03/29 04:35:42;;;;;;;18.33;8.68;;;6.90;61.50;;;;;;4945374;28;20038;-88
2022/03/29 04:38:08;;;;;;;18.90;8.88;;;6.90;61.60;;;;;;4954594;28;20031;-87
2022/03/29 04:40:33;;;;;;;18.73;8.90;;;6.80;61.60;;;;;;4941408;28;20043;-88
2022/03/29 04:43:00;;;;;;;16.90;8.73;;;6.80;61.60;;;;;;4939133;28;20182;-89
2022/03/29 04:45:26;;;;;;;18.02;9.00;;;6.70;61.60;;;;;;4966010;28;20038;-88
2022/03/29 04:47:52;;;;;;;15.38;8.52;;;6.70;61.70;;;;;;4953471;28;20492;-88
2022/03/29 04:50:17;;;;;;;15.85;8.40;;;6.70;61.90;;;;;;4936451;29;20035;-88
2022/03/29 04:52:47;;;;;;;20.98;9.50;;;6.70;62.00;;;;;;4932488;29;20037;-88
2022/03/29 04:55:18;;;;;;;13.48;7.88;;;6.70;62.10;;;;;;4939294;29;20049;-88
2022/03/29 04:57:45;;;;;;;15.57;9.02;;;6.70;62.20;;;;;;4937014;28;20094;-88
2022/03/29 05:00:12;;;;;;;16.98;8.93;;;6.60;62.20;;;;;;4943550;28;20034;-88
2022/03/29 05:02:43;;;;;;;14.20;8.07;;;6.60;62.30;;;;;;4956928;28;20054;-88
2022/03/29 05:05:10;;;;;;;17.70;8.50;;;6.60;62.50;;;;;;4935773;28;20038;-88
2022/03/29 05:07:39;;;;;;;16.35;8.20;;;6.60;62.40;;;;;;4948852;29;20038;-88
2022/03/29 05:10:05;;;;;;;17.27;8.45;;;6.60;62.60;;;;;;4957650;28;20038;-87
2022/03/29 05:12:47;;;;;;;18.05;8.38;;;6.60;62.60;;;;;;4957300;29;20019;-87
2022/03/29 05:15:16;;;;;;;18.55;9.70;;;6.50;62.60;;;;;;4968705;28;20047;-88
2022/03/29 05:17:42;;;;;;;19.67;9.25;;;6.50;62.50;;;;;;4940252;28;21286;-89
2022/03/29 05:20:10;;;;;;;13.65;8.32;;;6.50;62.60;;;;;;4937003;29;20112;-89
2022/03/29 05:22:47;;;;;;;18.35;8.70;;;6.60;62.90;;;;;;4939908;29;20038;-88
2022/03/29 05:25:14;;;;;;;17.55;8.77;;;6.60;63.20;;;;;;4966550;28;20077;-87
2022/03/29 05:27:43;;;;;;;17.35;9.13;;;6.70;62.90;;;;;;4957472;28;20015;-88
2022/03/29 05:30:10;;;;;;;21.30;11.13;;;6.60;63.50;;;;;;4947596;28;20495;-89
2022/03/29 05:32:43;;;;;;;20.38;9.75;;;6.70;62.80;;;;;;4960442;28;20123;-90
2022/03/29 05:35:10;;;;;;;20.88;9.32;;;6.70;63.00;;;;;;4949664;28;20019;-90
2022/03/29 05:37:37;;;;;;;17.15;8.82;;;6.70;62.90;;;;;;4936232;29;20027;-90
2022/03/29 05:40:06;;;;;;;18.60;9.63;;;6.70;63.10;;;;;;4933829;28;20063;-89
2022/03/29 05:42:40;;;;;;;16.80;10.05;;;6.80;63.40;;;;;;4952775;28;20931;-88
2022/03/29 05:45:07;;;;;;;20.75;10.10;;;6.90;63.50;;;;;;4943217;29;20040;-90
2022/03/29 05:50:19;;;;;;;20.42;10.70;;;7.00;63.50;;;;;;4956411;28;20119;-89
2022/03/29 05:52:45;;;;;;;22.83;9.57;;;7.10;63.40;;;;;;4947474;29;20027;-90
2022/03/29 05:55:10;;;;;;;19.77;10.38;;;7.10;63.50;;;;;;4935894;29;20030;-90
2022/03/29 05:57:36;;;;;;;19.20;10.63;;;7.20;63.50;;;;;;4953306;28;20049;-89
2022/03/29 06:00:03;;;;;;;19.67;10.35;;;7.30;63.40;;;;;;4934224;29;20031;-88
2022/03/29 06:02:29;;;;;;;18.48;10.48;;;7.30;63.30;;;;;;4946097;28;20091;-89
2022/03/29 06:04:58;;;;;;;17.40;10.90;;;7.40;63.40;;;;;;4953172;28;20055;-89
2022/03/29 06:07:24;;;;;;;21.40;11.75;;;7.50;64.00;;;;;;4953275;28;20046;-90
2022/03/29 06:09:50;;;;;;;26.33;13.38;;;7.50;63.60;;;;;;4945772;29;20503;-90
2022/03/29 06:12:21;;;;;;;25.63;13.38;;;7.50;63.60;;;;;;4956076;28;20046;-87
2022/03/29 06:14:47;;;;;;;25.02;13.77;;;7.50;63.70;;;;;;4957244;28;20042;-88
2022/03/29 06:17:12;;;;;;;23.63;13.27;;;7.60;63.60;;;;;;4962411;28;20034;-89
2022/03/29 06:19:38;;;;;;;22.65;11.77;;;7.70;63.60;;;;;;4960684;28;20091;-88
2022/03/29 06:22:04;;;;;;;23.70;13.77;;;7.80;63.60;;;;;;4956609;28;20027;-89
2022/03/29 06:24:31;;;;;;;22.08;12.95;;;7.80;63.50;;;;;;4944668;29;20106;-89
2022/03/29 06:26:57;;;;;;;28.38;14.05;;;7.90;63.50;;;;;;4947546;28;20027;-88
2022/03/29 06:29:23;;;;;;;23.67;13.45;;;8.00;63.60;;;;;;4949418;28;20361;-87
2022/03/29 06:31:49;;;;;;;24.98;14.00;;;8.10;63.50;;;;;;4950449;28;20029;-87
2022/03/29 06:34:15;;;;;;;24.08;13.73;;;8.10;63.30;;;;;;4940860;29;20127;-87
2022/03/29 06:36:41;;;;;;;26.38;15.05;;;8.20;63.60;;;;;;4965099;28;20066;-88
2022/03/29 06:39:08;;;;;;;27.50;14.43;;;8.30;63.60;;;;;;4948726;29;20522;-89
2022/03/29 06:41:34;;;;;;;26.00;14.75;;;8.40;63.60;;;;;;4938808;29;20154;-88
2022/03/29 06:44:00;;;;;;;23.90;13.57;;;8.50;63.50;;;;;;4956360;28;20023;-88
2022/03/29 06:46:26;;;;;;;27.73;13.25;;;8.60;63.50;;;;;;4955374;28;20093;-87
2022/03/29 06:48:54;;;;;;;23.23;13.63;;;8.70;63.40;;;;;;4957532;28;20031;-89
2022/03/29 06:51:19;;;;;;;24.63;13.50;;;8.80;63.20;;;;;;4935937;29;20024;-87
2022/03/29 06:53:45;;;;;;;21.27;12.55;;;8.90;63.00;;;;;;4939732;29;20065;-88
2022/03/29 06:56:11;;;;;;;21.25;12.65;;;9.10;63.00;;;;;;4937633;29;20118;-91
2022/03/29 06:58:37;;;;;;;22.48;12.40;;;9.20;62.80;;;;;;4942502;29;20495;-88
2022/03/29 07:01:04;;;;;;;23.45;12.85;;;9.30;62.70;;;;;;4961555;28;20459;-88
2022/03/29 07:03:30;;;;;;;22.48;12.55;;;9.50;62.90;;;;;;4942280;29;20062;-88
2022/03/29 07:05:58;;;;;;;24.80;12.73;;;9.60;62.80;;;;;;4945534;28;20031;-89
2022/03/29 07:08:24;;;;;;;23.15;11.88;;;9.80;62.60;;;;;;4961330;28;20479;-88
2022/03/29 07:13:34;;;;;;;21.83;12.50;;;10.20;62.30;;;;;;4949673;29;20061;-89
2022/03/29 07:16:00;;;;;;;19.77;11.70;;;10.30;62.10;;;;;;4941727;28;20053;-89
2022/03/29 07:18:25;;;;;;;21.30;12.25;;;10.50;62.00;;;;;;4954891;29;20032;-88
2022/03/29 07:20:51;;;;;;;21.90;11.55;;;10.70;61.80;;;;;;4940321;28;20027;-89
2022/03/29 07:23:17;;;;;;;20.85;11.77;;;11.00;61.50;;;;;;4943023;29;20072;-89
2022/03/29 07:25:51;;;;;;;21.27;11.38;;;11.10;61.50;;;;;;4941435;28;20086;-89
2022/03/29 07:28:17;;;;;;;18.85;11.40;;;11.30;61.60;;;;;;4945788;28;20091;-90
2022/03/29 07:30:43;;;;;;;21.65;10.63;;;11.50;61.10;;;;;;4938055;28;20015;-89
2022/03/29 07:33:11;;;;;;;19.38;11.13;;;11.80;61.00;;;;;;4961862;28;20031;-89
2022/03/29 07:35:37;;;;;;;17.67;10.27;;;12.10;60.60;;;;;;4962008;28;20015;-89
2022/03/29 07:38:04;;;;;;;18.10;10.60;;;12.30;60.20;;;;;;4962093;28;20041;-89
2022/03/29 07:40:31;;;;;;;20.92;10.73;;;12.50;60.00;;;;;;4979166;28;20038;-88
2022/03/29 07:42:58;;;;;;;19.75;10.52;;;12.70;59.60;;;;;;4949644;29;20038;-90
2022/03/29 07:45:24;;;;;;;21.80;11.90;;;12.90;59.30;;;;;;4963115;28;20026;-89
2022/03/29 07:47:52;;;;;;;21.65;10.63;;;13.10;59.00;;;;;;4943495;29;20024;-89
2022/03/29 07:50:18;;;;;;;18.08;9.35;;;13.40;58.30;;;;;;4940658;29;20038;-88
2022/03/29 07:52:44;;;;;;;26.88;10.43;;;13.80;57.70;;;;;;4943556;28;20031;-89
2022/03/29 07:55:12;;;;;;;18.52;9.55;;;14.30;57.50;;;;;;4938191;29;20038;-89
2022/03/29 07:57:39;;;;;;;18.00;10.00;;;14.70;57.10;;;;;;4947890;28;20491;-89
2022/03/29 08:02:52;;;;;;;19.67;10.05;;;15.70;56.40;;;;;;4953913;28;20038;-90
2022/03/29 08:05:18;;;;;;;20.88;9.25;;;16.40;55.90;;;;;;4939734;28;20432;-89
2022/03/29 08:07:44;;;;;;;18.40;9.95;;;17.00;55.40;;;;;;4942751;28;20459;-90
2022/03/29 08:10:10;;;;;;;17.55;9.32;;;17.60;54.60;;;;;;4939082;29;20040;-90
2022/03/29 08:12:36;;;;;;;16.83;10.07;;;18.00;54.30;;;;;;4939061;29;20055;-89
2022/03/29 08:15:02;;;;;;;18.13;10.57;;;18.30;53.90;;;;;;4959924;28;20030;-88
2022/03/29 08:17:27;;;;;;;20.88;10.68;;;18.50;52.80;;;;;;4951961;28;20035;-89
2022/03/29 08:19:53;;;;;;;17.60;10.48;;;18.70;51.70;;;;;;4968638;28;20031;-89
2022/03/29 08:22:19;;;;;;;19.30;9.23;;;18.90;51.30;;;;;;4948176;29;20783;-90
2022/03/29 08:24:45;;;;;;;19.98;9.35;;;18.90;51.40;;;;;;4937349;28;20025;-90
2022/03/29 08:27:10;;;;;;;17.05;9.35;;;18.60;50.70;;;;;;4967709;28;20395;-90
2022/03/29 08:29:37;;;;;;;18.27;9.38;;;18.40;51.10;;;;;;4960097;28;20475;-89
2022/03/29 08:32:03;;;;;;;18.63;9.55;;;18.40;51.20;;;;;;4958200;28;20027;-89
2022/03/29 08:34:28;;;;;;;16.15;9.18;;;18.30;51.00;;;;;;4937802;29;20058;-88
2022/03/29 08:36:54;;;;;;;16.65;8.73;;;18.30;50.60;;;;;;4972324;28;20106;-90
2022/03/29 08:39:19;;;;;;;15.82;9.50;;;18.50;50.50;;;;;;4943023;28;20033;-89
2022/03/29 08:41:50;;;;;;;19.27;9.57;;;18.60;50.20;;;;;;4965907;28;20208;-88
2022/03/29 08:44:15;;;;;;;16.48;8.98;;;18.70;49.80;;;;;;4937822;29;20019;-88
2022/03/29 08:46:42;;;;;;;23.75;12.20;;;18.60;49.70;;;;;;4945319;28;20507;-87
2022/03/29 08:49:41;;;;;;;14.52;9.75;;;18.50;49.80;;;;;;4999642;23;20093;-87
2022/03/29 08:52:48;;;;;;;20.83;10.45;;;18.20;49.60;;;;;;4957938;28;20065;-87
2022/03/29 08:55:44;;;;;;;19.30;9.65;;;18.10;49.40;;;;;;4987632;28;20489;-88
2022/03/29 09:08:11;;;;;;;20.33;10.25;;;19.00;48.50;;;;;;4977038;28;20030;-87
2022/03/29 09:11:13;;;;;;;19.52;9.93;;;19.20;47.80;;;;;;4994455;28;20022;-87
2022/03/29 09:14:04;;;;;;;26.35;10.00;;;19.40;47.60;;;;;;4976409;28;20503;-88
2022/03/29 09:16:50;;;;;;;18.95;10.50;;;19.30;48.10;;;;;;4972426;28;20035;-88
2022/03/29 09:20:09;;;;;;;20.00;9.48;;;19.50;48.70;;;;;;4977284;28;20018;-88
2022/03/29 09:22:12;;;;;;;18.73;10.85;;;19.90;48.80;;;;;;4974987;28;20061;-87
2022/03/29 09:24:56;;;;;;;21.48;10.90;;;20.30;48.50;;;;;;4976137;28;20019;-87
2022/03/29 09:27:58;;;;;;;20.70;10.77;;;20.80;47.80;;;;;;4971240;28;20065;-87
2022/03/29 09:30:52;;;;;;;21.23;11.23;;;20.70;47.60;;;;;;4951264;28;20058;-86
2022/03/29 09:33:20;;;;;;;19.23;10.60;;;20.80;47.50;;;;;;4962895;28;20026;-87
2022/03/29 09:36:43;;;;;;;19.45;11.02;;;20.60;47.50;;;;;;4976640;28;20113;-86
2022/03/29 09:40:03;;;;;;;21.30;12.05;;;20.70;47.70;;;;;;4915778;29;20070;-87
2022/03/29 09:43:02;;;;;;;23.30;10.80;;;20.80;48.00;;;;;;4908613;29;20167;-86
2022/03/29 09:49:20;;;;;;;;;;;;;;;;;;;;;
2022/03/29 09:52:14;;;;;;;23.63;10.65;;;20.60;47.60;;;;;;4997127;28;20022;-87
2022/03/29 09:55:17;;;;;;;19.88;10.82;;;20.50;47.80;;;;;;4979820;28;20038;-87
2022/03/29 09:58:00;;;;;;;25.67;11.52;;;20.60;47.80;;;;;;4983120;28;20465;-87
2022/03/29 10:00:44;;;;;;;20.25;11.75;;;20.60;47.90;;;;;;4979720;28;20022;-87
2022/03/29 10:03:26;;;;;;;22.95;11.50;;;20.50;47.40;;;;;;4978564;28;20130;-88
2022/03/29 10:06:20;;;;;;;22.00;12.03;;;20.30;46.80;;;;;;4988512;28;20485;-89
2022/03/29 10:12:36;;;;;;;;;;;;;;;;;;;;;
2022/03/29 10:30:18;;;;;;;22.17;11.80;;;20.30;47.60;;;;;;4874516;29;20052;-87
2022/03/29 10:57:54;;;;;;;24.63;11.90;;;20.30;48.00;;;;;;4975444;28;20046;-88
2022/03/29 11:10:44;;;;;;;24.33;12.65;;;20.70;47.80;;;;;;5008638;23;20178;-92
2022/03/29 11:13:32;;;;;;;22.00;12.80;;;20.90;47.60;;;;;;4946546;28;20031;-94
2022/03/29 11:16:17;;;;;;;27.10;12.27;;;21.20;47.70;;;;;;4957045;28;20039;-94
2022/03/29 11:18:45;;;;;;;25.63;12.45;;;21.40;47.20;;;;;;4952793;29;20054;-93
2022/03/29 11:21:35;;;;;;;27.08;12.68;;;21.60;47.10;;;;;;4951773;28;20031;-92
2022/03/29 11:24:03;;;;;;;27.42;12.85;;;21.70;46.80;;;;;;4948002;29;20046;-92
2022/03/29 11:26:33;;;;;;;27.90;13.25;;;21.90;46.80;;;;;;4947451;29;20019;-92
2022/03/29 11:29:00;;;;;;;23.40;12.40;;;22.00;46.20;;;;;;4954445;28;20399;-91
2022/03/29 11:31:37;;;;;;;26.77;13.27;;;22.00;46.50;;;;;;4944574;29;20119;-91
2022/03/29 11:34:03;;;;;;;29.63;13.95;;;22.00;46.60;;;;;;4946670;29;20208;-91
2022/03/29 11:36:30;;;;;;;26.50;14.55;;;21.90;46.70;;;;;;4948350;29;20028;-91
2022/03/29 11:38:56;;;;;;;27.30;13.70;;;22.00;46.20;;;;;;4963253;28;20019;-92
2022/03/29 11:41:29;;;;;;;26.60;13.77;;;21.90;45.60;;;;;;4966943;29;20095;-91
2022/03/29 11:44:05;;;;;;;27.95;14.30;;;21.90;45.90;;;;;;4956170;28;20050;-91
2022/03/29 12:02:55;;;;;;;25.63;14.32;;;22.40;44.60;;;;;;5053041;22;20082;-90
2022/03/29 12:05:25;;;;;;;25.55;14.18;;;22.40;44.40;;;;;;4957030;28;20026;-90
2022/03/29 12:08:03;;;;;;;30.42;15.27;;;22.40;44.70;;;;;;4965099;28;20031;-90
2022/03/29 12:10:30;;;;;;;29.55;15.45;;;22.20;43.40;;;;;;4965057;28;20062;-89
2022/03/29 12:12:56;;;;;;;27.95;13.90;;;22.00;43.00;;;;;;4951492;28;20085;-91
2022/03/29 12:15:22;;;;;;;27.35;14.63;;;21.80;43.50;;;;;;4941387;29;20070;-90
2022/03/29 12:18:45;;;;;;;25.27;13.75;;;21.70;43.40;;;;;;4943399;29;20023;-89
2022/03/29 12:20:48;;;;;;;29.38;14.15;;;21.70;43.50;;;;;;4949097;28;20054;-89
2022/03/29 12:23:28;;;;;;;26.85;14.43;;;21.80;43.90;;;;;;4953091;28;20081;-91
2022/03/29 12:25:55;;;;;;;29.90;15.48;;;22.00;43.10;;;;;;4954281;29;20031;-91
2022/03/29 12:28:22;;;;;;;31.83;15.32;;;22.10;43.50;;;;;;4954830;28;20033;-91
2022/03/29 12:30:49;;;;;;;33.63;19.98;;;22.00;43.20;;;;;;4962612;28;20117;-91
2022/03/29 12:33:15;;;;;;;32.55;14.73;;;21.90;43.60;;;;;;4955255;29;20027;-91
2022/03/29 12:35:41;;;;;;;30.08;14.70;;;21.90;43.50;;;;;;4951538;28;20078;-92
2022/03/29 12:38:12;;;;;;;26.35;14.43;;;22.00;43.50;;;;;;4954305;28;20039;-92
2022/03/29 12:40:38;;;;;;;29.40;13.60;;;22.00;43.50;;;;;;4957153;28;20026;-91
2022/03/29 12:43:07;;;;;;;31.90;14.38;;;21.90;43.40;;;;;;4944089;29;20090;-91
2022/03/29 12:45:34;;;;;;;23.67;14.02;;;21.90;43.20;;;;;;4936368;29;20467;-90
2022/03/29 12:48:04;;;;;;;24.55;13.18;;;22.00;43.30;;;;;;4943687;28;20049;-92
2022/03/29 12:50:30;;;;;;;24.75;13.40;;;21.90;43.10;;;;;;4947132;28;20459;-91
2022/03/29 12:53:04;;;;;;;31.70;14.70;;;21.90;43.00;;;;;;4948837;28;20396;-92
2022/03/29 12:55:31;;;;;;;35.38;15.60;;;21.80;42.80;;;;;;4951839;29;20019;-92
2022/03/29 12:58:04;;;;;;;28.83;14.25;;;21.80;42.60;;;;;;4945921;28;20401;-91
2022/03/29 13:00:42;;;;;;;31.05;14.88;;;21.70;42.60;;;;;;4944161;29;20023;-91
2022/03/29 13:03:10;;;;;;;28.63;14.60;;;21.70;42.90;;;;;;4933872;29;20097;-92
2022/03/29 13:05:36;;;;;;;31.98;14.90;;;21.60;42.70;;;;;;4944816;28;20114;-91
2022/03/29 13:08:03;;;;;;;25.15;12.45;;;21.60;43.00;;;;;;4944275;29;20082;-91
2022/03/29 13:10:33;;;;;;;30.27;13.10;;;21.60;42.90;;;;;;4944901;28;20027;-91
2022/03/29 13:13:03;;;;;;;23.65;11.95;;;21.50;42.00;;;;;;4943820;29;20027;-91
2022/03/29 13:15:54;;;;;;;22.55;12.32;;;21.40;42.10;;;;;;4938039;29;20122;-91
2022/03/29 13:18:28;;;;;;;25.88;12.55;;;21.30;42.00;;;;;;4945862;28;20086;-90
2022/03/29 13:21:05;;;;;;;21.80;10.25;;;21.20;42.20;;;;;;4944109;29;20020;-91
2022/03/29 13:23:34;;;;;;;25.42;13.02;;;21.20;42.60;;;;;;4943611;29;20027;-91
2022/03/29 13:26:00;;;;;;;26.73;11.82;;;21.10;42.50;;;;;;4945441;29;20038;-92
2022/03/29 13:28:26;;;;;;;23.55;12.45;;;21.00;42.50;;;;;;4941891;29;20024;-91
2022/03/29 13:30:53;;;;;;;23.23;12.95;;;20.90;42.30;;;;;;4944735;29;20030;-90
2022/03/29 13:37:32;;;;;;;;;;;;;;;;;;;;;
2022/03/29 13:48:07;;;;;;;28.13;12.98;;;20.60;42.50;;;;;;4895514;29;20040;-87
2022/03/29 14:10:36;;;;;;;24.63;13.30;;;20.00;43.40;;;;;;5079776;23;20108;-90
2022/03/29 14:13:05;;;;;;;28.20;12.77;;;20.00;43.70;;;;;;4969186;28;20030;-90
2022/03/29 14:15:33;;;;;;;26.65;13.93;;;20.00;43.70;;;;;;4956359;28;20039;-91
2022/03/29 14:17:58;;;;;;;23.33;12.93;;;20.00;43.60;;;;;;4959952;28;20344;-90
2022/03/29 14:20:27;;;;;;;25.20;13.02;;;19.90;43.50;;;;;;4959381;28;20026;-91
2022/03/29 14:22:53;;;;;;;27.38;13.07;;;19.90;43.60;;;;;;4966027;28;20094;-89
2022/03/29 14:25:21;;;;;;;25.23;11.70;;;19.80;43.60;;;;;;4957619;28;20027;-90
2022/03/29 14:27:46;;;;;;;29.88;14.63;;;19.80;43.70;;;;;;4961627;28;20126;-90
2022/03/29 14:30:15;;;;;;;25.08;12.63;;;19.80;43.70;;;;;;4957080;28;20081;-90
2022/03/29 14:32:41;;;;;;;27.85;13.18;;;19.80;43.80;;;;;;4953003;28;20043;-89
2022/03/29 14:35:07;;;;;;;27.15;13.68;;;19.90;43.90;;;;;;4953970;28;20090;-90
2022/03/29 14:40:10;;;;;;;26.70;12.77;;;19.80;43.70;;;;;;5237857;22;20052;-91
2022/03/29 14:42:38;;;;;;;30.38;13.00;;;19.80;43.60;;;;;;4964744;28;20039;-91
2022/03/29 14:45:05;;;;;;;30.38;13.60;;;19.80;43.80;;;;;;4962512;28;20109;-90
2022/03/29 14:47:33;;;;;;;25.25;13.52;;;19.80;43.60;;;;;;4962420;28;20054;-90
2022/03/29 16:39:38;;;;;;;20.23;10.15;;;18.40;44.70;;;;;;4954485;28;20067;-94
2022/03/29 17:59:36;;;;;;;31.67;14.13;;;16.60;47.90;;;;;;4919349;29;20044;-90
2022/03/29 20:55:35;;;;;;;20.33;11.80;;;13.00;58.30;;;;;;4901701;29;20433;-86
2022/03/29 20:58:01;;;;;;;20.33;11.73;;;13.00;58.30;;;;;;4911546;29;20039;-86
2022/03/29 21:00:26;;;;;;;19.98;11.50;;;13.00;58.50;;;;;;4912074;29;20032;-87
2022/03/29 21:02:54;;;;;;;18.50;11.18;;;13.00;58.60;;;;;;4907366;29;20040;-89
2022/03/29 21:05:20;;;;;;;22.88;12.10;;;13.00;58.70;;;;;;4907324;29;20026;-89
2022/03/29 21:07:46;;;;;;;22.50;11.98;;;13.00;58.70;;;;;;4915122;29;20060;-88
2022/03/29 21:10:12;;;;;;;24.48;12.73;;;13.00;58.80;;;;;;4908608;29;20533;-89
2022/03/29 21:12:38;;;;;;;20.05;11.65;;;13.00;58.90;;;;;;4897287;29;20409;-89
2022/03/29 21:15:04;;;;;;;18.38;11.52;;;12.90;59.00;;;;;;4908201;29;20036;-89
2022/03/29 21:17:30;;;;;;;20.35;11.48;;;12.90;59.00;;;;;;4902095;29;20036;-89
2022/03/29 21:19:56;;;;;;;22.73;12.38;;;12.90;59.20;;;;;;4911489;29;20358;-89
2022/03/29 21:22:21;;;;;;;18.27;11.88;;;12.90;59.30;;;;;;4906111;29;20404;-89
2022/03/29 21:24:47;;;;;;;21.02;13.38;;;12.90;59.40;;;;;;4915219;29;20088;-89
2022/03/29 21:27:13;;;;;;;19.67;11.73;;;12.90;59.60;;;;;;4912857;29;20073;-88
2022/03/29 21:29:38;;;;;;;19.83;12.57;;;12.80;59.60;;;;;;4915016;29;20030;-88
2022/03/29 21:32:05;;;;;;;24.70;13.02;;;12.80;59.70;;;;;;4910065;29;20186;-89
2022/03/29 21:34:30;;;;;;;20.75;13.13;;;12.80;59.80;;;;;;4915286;29;20051;-88
2022/03/29 21:36:56;;;;;;;22.27;12.80;;;12.80;59.90;;;;;;4913541;29;20020;-88
2022/03/29 21:39:21;;;;;;;23.67;13.18;;;12.80;60.00;;;;;;4914103;29;20110;-89
2022/03/29 21:41:47;;;;;;;19.42;12.38;;;12.90;60.00;;;;;;4908519;29;20400;-89
2022/03/29 21:44:13;;;;;;;21.90;13.15;;;12.80;59.90;;;;;;4911701;29;20092;-88
2022/03/29 21:46:38;;;;;;;20.75;12.63;;;12.80;60.00;;;;;;4909671;29;20103;-89
2022/03/29 21:49:04;;;;;;;18.83;11.90;;;12.80;60.10;;;;;;4910511;29;20770;-89
2022/03/29 21:51:30;;;;;;;21.10;13.10;;;12.70;60.10;;;;;;4913620;29;20064;-86
2022/03/29 21:53:55;;;;;;;23.63;13.00;;;12.70;60.20;;;;;;4905539;29;20092;-86
2022/03/29 21:56:21;;;;;;;20.35;11.35;;;12.70;60.30;;;;;;4917159;29;20060;-86
2022/03/29 21:58:47;;;;;;;20.05;11.88;;;12.70;60.40;;;;;;4919385;29;20497;-86
2022/03/29 22:01:12;;;;;;;20.30;12.20;;;12.70;60.40;;;;;;4937558;29;20127;-87
2022/03/29 22:03:38;;;;;;;22.90;12.65;;;12.60;60.40;;;;;;4917641;29;20087;-87
2022/03/29 22:06:04;;;;;;;21.85;12.05;;;12.60;60.60;;;;;;4906597;29;20028;-87
2022/03/29 22:08:29;;;;;;;23.88;12.43;;;12.60;60.60;;;;;;4919391;29;20027;-88
2022/03/29 22:10:55;;;;;;;21.10;12.10;;;12.60;60.70;;;;;;4908352;29;20024;-88
2022/03/29 22:13:21;;;;;;;23.80;11.90;;;12.50;60.70;;;;;;4938136;28;20035;-86
2022/03/29 22:15:46;;;;;;;20.33;11.80;;;12.50;61.00;;;;;;4907474;29;20023;-88
2022/03/29 22:18:12;;;;;;;20.88;12.50;;;12.50;61.40;;;;;;4915567;29;20486;-87
2022/03/29 22:20:40;;;;;;;24.08;12.57;;;12.60;61.70;;;;;;4912224;29;20059;-87
2022/03/29 22:23:06;;;;;;;21.17;11.70;;;12.70;61.70;;;;;;4919964;29;20064;-87
2022/03/29 22:25:32;;;;;;;21.50;12.52;;;12.70;61.50;;;;;;4922070;29;20080;-86